createdAt,value
2022-10-09T00:01:11.867Z,100686.78
2022-10-09T00:03:41.992Z,100674.88
2022-10-09T00:06:13.779Z,100681.25
2022-10-09T00:08:43.844Z,100675.06
2022-10-09T00:11:14.077Z,100665.91
2022-10-09T00:13:42.182Z,100674.13
2022-10-09T00:16:12.632Z,100666.50
2022-10-09T00:18:41.430Z,100666.03
2022-10-09T00:21:20.496Z,100663.69
2022-10-09T00:23:49.515Z,100655.28
2022-10-09T00:26:18.323Z,100655.94
2022-10-09T00:28:47.071Z,100651.97
2022-10-09T00:31:16.146Z,100659.09
2022-10-09T00:33:44.509Z,100653.09
2022-10-09T00:36:14.721Z,100652.28
2022-10-09T00:38:44.380Z,100654.19
2022-10-09T00:41:16.182Z,100649.28
2022-10-09T00:43:47.717Z,100666.72
2022-10-09T00:46:35.595Z,100654.50
2022-10-09T00:49:16.890Z,100653.84
2022-10-09T00:51:46.840Z,100657.50
2022-10-09T00:54:18.400Z,100661.91
2022-10-09T00:56:46.766Z,100657.97
2022-10-09T00:59:15.522Z,100654.47
2022-10-09T01:01:43.945Z,100653.34
2022-10-09T01:04:12.190Z,100650.66
2022-10-09T01:06:59.682Z,100648.47
2022-10-09T01:09:37.158Z,100639.88
2022-10-09T01:12:13.693Z,100643.22
2022-10-09T01:14:48.048Z,100647.81
2022-10-09T01:17:25.905Z,100627.03
2022-10-09T01:20:23.199Z,100627.38
2022-10-09T01:23:04.898Z,100633.25
2022-10-09T01:25:38.371Z,100633.88
2022-10-09T01:28:08.903Z,100641.69
2022-10-09T01:30:38.217Z,100633.59
2022-10-09T01:33:07.214Z,100629.00
2022-10-09T01:35:36.086Z,100624.59
2022-10-09T01:38:05.733Z,100628.22
2022-10-09T01:40:34.059Z,100623.94
2022-10-09T01:43:02.619Z,100627.59
2022-10-09T01:45:40.880Z,100623.97
2022-10-09T01:48:13.696Z,100630.94
2022-10-09T01:50:45.733Z,100630.94
2022-10-09T01:53:19.615Z,100629.50
2022-10-09T01:55:52.103Z,100633.47
2022-10-09T01:58:25.175Z,100625.56
2022-10-09T02:01:01.684Z,100633.50
2022-10-09T02:03:31.848Z,100630.19
2022-10-09T02:06:01.519Z,100630.81
2022-10-09T02:08:31.896Z,100628.75
2022-10-09T02:11:02.925Z,100631.56
2022-10-09T02:13:31.927Z,100631.47
2022-10-09T02:16:07.059Z,100639.03
2022-10-09T02:18:41.067Z,100637.63
2022-10-09T02:21:14.340Z,100642.22
2022-10-09T02:23:44.714Z,100634.28
2022-10-09T02:26:14.010Z,100635.53
2022-10-09T02:28:45.794Z,100626.50
2022-10-09T02:31:22.220Z,100626.06
2022-10-09T02:33:56.922Z,100624.31
2022-10-09T02:36:25.327Z,100637.78
2022-10-09T02:38:53.679Z,100633.31
2022-10-09T02:41:22.483Z,100638.88
2022-10-09T02:43:50.832Z,100642.03
2022-10-09T02:46:20.684Z,100640.44
2022-10-09T02:48:48.933Z,100647.75
2022-10-09T02:51:17.588Z,100638.06
2022-10-09T02:53:46.141Z,100652.50
2022-10-09T02:56:14.526Z,100644.91
2022-10-09T02:58:42.746Z,100643.81
2022-10-09T03:01:10.822Z,100639.81
2022-10-09T03:03:40.357Z,100641.25
2022-10-09T03:06:11.375Z,100643.63
2022-10-09T03:08:42.263Z,100648.88
2022-10-09T03:11:11.133Z,100641.91
2022-10-09T03:13:40.295Z,100650.59
2022-10-09T03:16:10.379Z,100649.81
2022-10-09T03:18:40.622Z,100655.53
2022-10-09T03:21:10.394Z,100655.84
2022-10-09T03:23:38.869Z,100672.00
2022-10-09T03:26:09.579Z,100672.47
2022-10-09T03:28:38.895Z,100668.97
2022-10-09T03:31:07.614Z,100676.91
2022-10-09T03:33:36.682Z,100671.53
2022-10-09T03:36:09.699Z,100669.16
2022-10-09T03:38:37.880Z,100674.53
2022-10-09T03:41:06.595Z,100678.63
2022-10-09T03:43:35.685Z,100676.75
2022-10-09T03:46:07.893Z,100677.84
2022-10-09T03:48:36.601Z,100674.38
2022-10-09T03:51:06.506Z,100682.28
2022-10-09T03:53:34.825Z,100680.41
2022-10-09T03:56:02.931Z,100676.56
2022-10-09T03:58:31.146Z,100681.50
2022-10-09T04:00:59.384Z,100673.25
2022-10-09T04:03:28.184Z,100683.88
2022-10-09T04:05:56.336Z,100680.88
2022-10-09T04:08:25.947Z,100684.03
2022-10-09T04:10:58.457Z,100680.56
2022-10-09T04:13:26.687Z,100682.13
2022-10-09T04:15:56.016Z,100677.38
2022-10-09T04:18:24.736Z,100679.91
2022-10-09T04:20:53.915Z,100681.66
2022-10-09T04:23:27.916Z,100685.63
2022-10-09T04:25:59.619Z,100682.44
2022-10-09T04:28:28.649Z,100682.44
2022-10-09T04:30:57.485Z,100691.00
2022-10-09T04:33:26.164Z,100687.06
2022-10-09T04:35:56.038Z,100690.53
2022-10-09T04:38:25.300Z,100685.16
2022-10-09T04:41:02.858Z,100691.16
2022-10-09T04:43:31.827Z,100692.13
2022-10-09T04:46:00.458Z,100699.06
2022-10-09T04:48:28.647Z,100696.53
2022-10-09T04:50:56.823Z,100691.91
2022-10-09T04:53:24.951Z,100701.84
2022-10-09T04:55:53.175Z,100695.34
2022-10-09T04:58:22.712Z,100705.16
2022-10-09T05:00:50.990Z,100698.16
2022-10-09T05:03:19.226Z,100708.75
2022-10-09T05:05:47.730Z,100708.59
2022-10-09T05:08:15.838Z,100713.75
2022-10-09T05:10:44.072Z,100708.31
2022-10-09T05:13:12.344Z,100717.16
2022-10-09T05:15:43.935Z,100715.34
2022-10-09T05:18:12.182Z,100713.25
2022-10-09T05:20:42.714Z,100716.34
2022-10-09T05:23:10.812Z,100715.22
2022-10-09T05:25:39.130Z,100718.69
2022-10-09T05:28:07.527Z,100711.72
2022-10-09T05:30:36.102Z,100711.97
2022-10-09T05:33:05.657Z,100721.78
2022-10-09T05:35:33.848Z,100717.09
2022-10-09T05:38:01.982Z,100718.28
2022-10-09T05:40:30.159Z,100718.88
2022-10-09T05:43:00.385Z,100729.72
2022-10-09T05:45:28.771Z,100733.22
2022-10-09T05:47:56.918Z,100739.25
2022-10-09T05:50:26.548Z,100731.69
2022-10-09T05:52:55.000Z,100734.06
2022-10-09T05:55:23.500Z,100735.75
2022-10-09T05:57:51.636Z,100746.47
2022-10-09T06:00:19.905Z,100737.22
2022-10-09T06:02:48.302Z,100738.00
2022-10-09T06:05:17.097Z,100754.44
2022-10-09T06:07:47.162Z,100750.16
2022-10-09T06:10:15.641Z,100753.88
2022-10-09T06:12:43.763Z,100753.66
2022-10-09T06:15:12.211Z,100760.88
2022-10-09T06:17:40.501Z,100754.88
2022-10-09T06:20:09.135Z,100767.22
2022-10-09T06:22:37.238Z,100768.09
2022-10-09T06:25:07.806Z,100764.50
2022-10-09T06:27:35.925Z,100763.34
2022-10-09T06:30:04.190Z,100762.69
2022-10-09T06:32:33.255Z,100769.31
2022-10-09T06:35:01.346Z,100780.56
2022-10-09T06:37:29.525Z,100774.81
2022-10-09T06:39:57.610Z,100778.22
2022-10-09T06:42:27.120Z,100779.19
2022-10-09T06:44:55.264Z,100783.00
2022-10-09T06:47:23.368Z,100782.72
2022-10-09T06:49:51.717Z,100789.53
2022-10-09T06:52:19.818Z,100778.97
2022-10-09T06:54:47.946Z,100782.25
2022-10-09T06:57:16.019Z,100783.22
2022-10-09T06:59:45.830Z,100792.94
2022-10-09T07:02:13.969Z,100785.16
2022-10-09T07:04:42.148Z,100789.38
2022-10-09T07:07:10.244Z,100790.25
2022-10-09T07:09:38.606Z,100797.53
2022-10-09T07:12:06.753Z,100798.47
2022-10-09T07:14:34.949Z,100807.16
2022-10-09T07:17:05.855Z,100805.75
2022-10-09T07:19:33.906Z,100806.34
2022-10-09T07:22:02.085Z,100802.22
2022-10-09T07:24:30.379Z,100798.63
2022-10-09T07:26:58.490Z,100805.66
2022-10-09T07:29:26.609Z,100802.31
2022-10-09T07:31:54.813Z,100809.06
2022-10-09T07:34:24.476Z,100803.53
2022-10-09T07:36:54.462Z,100807.84
2022-10-09T07:39:23.523Z,100806.69
2022-10-09T07:41:52.901Z,100803.13
2022-10-09T07:44:21.012Z,100812.75
2022-10-09T07:46:51.794Z,100805.69
2022-10-09T07:49:20.065Z,100804.59
2022-10-09T07:51:51.879Z,100802.47
2022-10-09T07:54:20.029Z,100798.25
2022-10-09T07:56:48.069Z,100800.06
2022-10-09T07:59:17.345Z,100798.03
2022-10-09T08:01:45.887Z,100796.69
2022-10-09T08:04:14.001Z,100789.44
2022-10-09T08:06:43.420Z,100791.97
2022-10-09T08:09:13.034Z,100786.66
2022-10-09T08:11:41.269Z,100783.34
2022-10-09T08:14:16.749Z,100782.06
2022-10-09T08:16:47.539Z,100790.09
2022-10-09T08:19:15.703Z,100779.97
2022-10-09T08:21:43.791Z,100789.63
2022-10-09T08:24:13.545Z,100792.72
2022-10-09T08:26:42.541Z,100784.56
2022-10-09T08:29:14.140Z,100779.94
2022-10-09T08:31:42.382Z,100782.91
2022-10-09T08:34:10.696Z,100790.31
2022-10-09T08:36:38.822Z,100784.88
2022-10-09T08:39:07.275Z,100781.19
2022-10-09T08:41:44.387Z,100771.81
2022-10-09T08:44:16.896Z,100769.50
2022-10-09T08:46:57.904Z,100778.09
2022-10-09T08:49:32.258Z,100762.53
2022-10-09T08:52:13.155Z,100766.50
2022-10-09T08:54:41.501Z,100772.91
2022-10-09T08:57:15.884Z,100770.63
2022-10-09T08:59:44.818Z,100782.44
2022-10-09T09:02:33.182Z,100769.81
2022-10-09T09:05:12.535Z,100766.03
2022-10-09T09:07:47.550Z,100782.63
2022-10-09T09:10:23.604Z,100770.75
2022-10-09T09:12:58.253Z,100769.81
2022-10-09T09:15:41.301Z,100766.06
2022-10-09T09:18:24.153Z,100770.66
2022-10-09T09:20:54.721Z,100766.91
2022-10-09T09:23:27.496Z,100763.84
2022-10-09T09:25:55.648Z,100762.94
2022-10-09T09:28:29.640Z,100753.28
2022-10-09T09:31:01.987Z,100761.84
2022-10-09T09:33:44.410Z,100758.81
2022-10-09T09:36:25.121Z,100750.47
2022-10-09T09:39:36.288Z,100748.53
2022-10-09T09:41:45.095Z,100756.22
2022-10-09T09:44:16.508Z,100753.44
2022-10-09T09:46:47.571Z,100758.47
2022-10-09T09:49:20.300Z,100763.03
2022-10-09T09:51:50.973Z,100747.41
2022-10-09T09:54:22.588Z,100752.19
2022-10-09T09:57:12.110Z,100752.16
2022-10-09T09:59:44.887Z,100756.91
2022-10-09T10:02:15.549Z,100753.38
2022-10-09T10:04:55.542Z,100753.00
2022-10-09T10:07:32.135Z,100748.81
2022-10-09T10:10:05.577Z,100749.59
2022-10-09T10:12:34.250Z,100755.06
2022-10-09T10:15:07.064Z,100748.81
2022-10-09T10:17:36.720Z,100756.22
2022-10-09T10:20:07.977Z,100750.63
2022-10-09T10:22:37.189Z,100748.53
2022-10-09T10:25:06.386Z,100750.97
2022-10-09T10:27:39.311Z,100751.72
2022-10-09T10:30:15.184Z,100745.81
2022-10-09T10:32:52.034Z,100745.16
2022-10-09T10:35:25.070Z,100748.75
2022-10-09T10:38:00.139Z,100746.41
2022-10-09T10:40:33.027Z,100735.56
2022-10-09T10:43:21.191Z,100741.44
2022-10-09T10:46:03.886Z,100734.72
2022-10-09T10:48:34.957Z,100740.13
2022-10-09T10:51:19.050Z,100735.53
2022-10-09T10:54:01.018Z,100735.28
2022-10-09T10:56:32.402Z,100728.88
2022-10-09T10:59:24.437Z,100734.81
2022-10-09T11:02:02.621Z,100721.63
2022-10-09T11:04:45.633Z,100719.78
2022-10-09T11:07:22.230Z,100718.28
2022-10-09T11:10:02.298Z,100723.22
2022-10-09T11:12:54.543Z,100724.75
2022-10-09T11:15:34.381Z,100726.22
2022-10-09T11:18:22.438Z,100716.25
2022-10-09T11:21:04.086Z,100724.28
2022-10-09T11:23:46.688Z,100716.66
2022-10-09T11:26:25.751Z,100720.03
2022-10-09T11:28:59.447Z,100709.66
2022-10-09T11:31:31.687Z,100717.22
2022-10-09T11:34:07.346Z,100713.41
2022-10-09T11:36:41.449Z,100717.19
2022-10-09T11:39:15.630Z,100711.53
2022-10-09T11:41:46.707Z,100720.03
2022-10-09T11:44:34.174Z,100718.28
2022-10-09T11:47:09.962Z,100717.50
2022-10-09T11:49:51.792Z,100717.19
2022-10-09T11:52:29.892Z,100724.50
2022-10-09T11:55:09.674Z,100713.88
2022-10-09T11:57:37.801Z,100727.84
2022-10-09T12:00:08.581Z,100726.22
2022-10-09T12:02:38.327Z,100721.44
2022-10-09T12:05:20.211Z,100720.59
2022-10-09T12:07:48.499Z,100729.56
2022-10-09T12:10:29.066Z,100729.97
2022-10-09T12:12:59.939Z,100728.56
2022-10-09T12:15:37.004Z,100733.75
2022-10-09T12:18:17.888Z,100733.00
2022-10-09T12:20:51.220Z,100737.81
2022-10-09T12:23:27.075Z,100740.84
2022-10-09T12:25:57.839Z,100732.06
2022-10-09T12:28:30.621Z,100742.16
2022-10-09T12:31:01.813Z,100739.38
2022-10-09T12:33:34.986Z,100746.03
2022-10-09T12:36:12.795Z,100744.50
2022-10-09T12:38:41.019Z,100746.41
2022-10-09T12:41:20.086Z,100741.88
2022-10-09T12:43:49.664Z,100747.72
2022-10-09T12:46:28.149Z,100743.81
2022-10-09T12:48:56.818Z,100735.69
2022-10-09T12:51:28.287Z,100740.81
2022-10-09T12:53:56.852Z,100738.56
2022-10-09T12:56:29.278Z,100750.00
2022-10-09T12:58:59.840Z,100753.16
2022-10-09T13:01:28.377Z,100753.09
2022-10-09T13:03:58.786Z,100754.16
2022-10-09T13:06:31.944Z,100749.19
2022-10-09T13:09:03.482Z,100747.06
2022-10-09T13:11:38.149Z,100760.28
2022-10-09T13:14:06.505Z,100755.09
2022-10-09T13:16:42.069Z,100752.19
2022-10-09T13:19:24.561Z,100759.63
2022-10-09T13:22:20.043Z,100763.88
2022-10-09T13:24:48.248Z,100755.50
2022-10-09T13:27:19.438Z,100761.59
2022-10-09T13:29:48.482Z,100754.28
2022-10-09T13:32:18.294Z,100762.44
2022-10-09T13:34:47.900Z,100759.41
2022-10-09T13:37:20.331Z,100760.22
2022-10-09T13:39:48.512Z,100762.41
2022-10-09T13:42:17.594Z,100771.25
2022-10-09T13:44:45.743Z,100757.59
2022-10-09T13:47:13.833Z,100763.97
2022-10-09T13:49:42.162Z,100764.03
2022-10-09T13:52:10.623Z,100759.69
2022-10-09T13:54:40.207Z,100765.22
2022-10-09T13:57:09.138Z,100764.28
2022-10-09T13:59:38.043Z,100769.84
2022-10-09T14:02:06.394Z,100773.56
2022-10-09T14:04:34.568Z,100769.44
2022-10-09T14:07:02.807Z,100768.66
2022-10-09T14:09:31.336Z,100766.88
2022-10-09T14:12:06.645Z,100770.69
2022-10-09T14:14:34.813Z,100769.03
2022-10-09T14:17:03.009Z,100768.69
2022-10-09T14:19:31.176Z,100772.19
2022-10-09T14:22:00.671Z,100770.19
2022-10-09T14:24:29.288Z,100765.56
2022-10-09T14:26:57.484Z,100761.25
2022-10-09T14:29:27.041Z,100775.41
2022-10-09T14:31:55.183Z,100769.69
2022-10-09T14:34:23.481Z,100773.13
2022-10-09T14:36:52.456Z,100774.09
2022-10-09T14:39:20.607Z,100786.47
2022-10-09T14:41:49.231Z,100793.41
2022-10-09T14:44:17.542Z,100788.66
2022-10-09T14:46:49.584Z,100787.09
2022-10-09T14:49:17.798Z,100791.72
2022-10-09T14:51:46.552Z,100788.22
2022-10-09T14:54:15.294Z,100783.94
2022-10-09T14:56:43.687Z,100784.63
2022-10-09T14:59:13.630Z,100792.09
2022-10-09T15:01:41.808Z,100793.50
2022-10-09T15:04:11.546Z,100797.13
2022-10-09T15:06:40.138Z,100800.88
2022-10-09T15:09:09.018Z,100806.91
2022-10-09T15:11:37.852Z,100810.53
2022-10-09T15:14:06.483Z,100817.34
2022-10-09T15:16:34.768Z,100816.59
2022-10-09T15:19:04.658Z,100808.16
2022-10-09T15:21:37.407Z,100818.78
2022-10-09T15:24:06.327Z,100821.94
2022-10-09T15:26:36.809Z,100821.28
2022-10-09T15:29:06.804Z,100816.72
2022-10-09T15:31:36.652Z,100827.13
2022-10-09T15:34:06.364Z,100832.09
2022-10-09T15:36:39.928Z,100833.44
2022-10-09T15:39:09.160Z,100833.66
2022-10-09T15:41:39.588Z,100834.09
2022-10-09T15:44:13.982Z,100846.75
2022-10-09T15:46:42.059Z,100848.22
2022-10-09T15:49:10.477Z,100853.84
2022-10-09T15:51:40.622Z,100859.16
2022-10-09T15:54:08.703Z,100854.97
2022-10-09T15:56:39.902Z,100858.25
2022-10-09T15:59:10.705Z,100864.53
2022-10-09T16:01:38.954Z,100862.75
2022-10-09T16:04:07.225Z,100861.38
2022-10-09T16:06:35.394Z,100870.38
2022-10-09T16:09:05.091Z,100870.72
2022-10-09T16:11:34.766Z,100876.38
2022-10-09T16:14:04.420Z,100877.97
2022-10-09T16:16:32.541Z,100880.75
2022-10-09T16:19:01.581Z,100884.03
2022-10-09T16:21:30.578Z,100881.19
2022-10-09T16:24:00.183Z,100888.25
2022-10-09T16:26:30.576Z,100888.16
2022-10-09T16:29:00.202Z,100896.63
2022-10-09T16:31:31.373Z,100901.25
2022-10-09T16:34:00.055Z,100900.75
2022-10-09T16:36:28.815Z,100914.84
2022-10-09T16:38:58.220Z,100913.69
2022-10-09T16:41:27.196Z,100911.22
2022-10-09T16:43:59.984Z,100915.25
2022-10-09T16:46:30.381Z,100916.28
2022-10-09T16:48:59.911Z,100920.97
2022-10-09T16:51:30.226Z,100916.69
2022-10-09T16:54:00.815Z,100918.25
2022-10-09T16:56:30.906Z,100924.69
2022-10-09T16:59:03.271Z,100923.56
2022-10-09T17:01:32.330Z,100921.66
2022-10-09T17:04:01.792Z,100926.81
2022-10-09T17:06:29.925Z,100933.88
2022-10-09T17:08:59.850Z,100926.56
2022-10-09T17:11:29.771Z,100931.59
2022-10-09T17:13:58.535Z,100935.56
2022-10-09T17:16:30.646Z,100938.50
2022-10-09T17:18:58.984Z,100942.19
2022-10-09T17:21:31.014Z,100935.72
2022-10-09T17:24:07.726Z,100943.56
2022-10-09T17:26:36.657Z,100949.63
2022-10-09T17:29:05.437Z,100944.88
2022-10-09T17:31:35.725Z,100946.97
2022-10-09T17:34:05.620Z,100954.97
2022-10-09T17:36:37.732Z,100950.81
2022-10-09T17:39:08.373Z,100954.28
2022-10-09T17:41:37.100Z,100958.50
2022-10-09T17:44:05.843Z,100963.28
2022-10-09T17:46:35.305Z,100964.28
2022-10-09T17:49:03.506Z,100966.56
2022-10-09T17:51:33.817Z,100973.13
2022-10-09T17:54:06.931Z,100970.75
2022-10-09T17:56:37.817Z,100980.38
2022-10-09T17:59:06.395Z,100989.44
2022-10-09T18:01:36.980Z,100979.78
2022-10-09T18:04:05.637Z,100986.03
2022-10-09T18:06:36.420Z,100990.03
2022-10-09T18:09:05.227Z,100990.03
2022-10-09T18:11:35.858Z,100987.34
2022-10-09T18:14:04.067Z,100995.78
2022-10-09T18:16:37.871Z,100993.09
2022-10-09T18:19:09.694Z,101001.38
2022-10-09T18:21:40.013Z,100996.75
2022-10-09T18:24:08.235Z,101010.06
2022-10-09T18:26:36.453Z,101002.16
2022-10-09T18:29:05.870Z,101003.44
2022-10-09T18:31:35.204Z,101008.06
2022-10-09T18:34:03.400Z,101014.88
2022-10-09T18:36:34.814Z,101014.72
2022-10-09T18:39:05.821Z,101017.59
2022-10-09T18:41:34.168Z,101019.50
2022-10-09T18:44:03.065Z,101020.91
2022-10-09T18:46:37.202Z,101032.81
2022-10-09T18:49:09.659Z,101027.41
2022-10-09T18:51:40.959Z,101026.00
2022-10-09T18:54:13.233Z,101029.16
2022-10-09T18:56:44.211Z,101038.53
2022-10-09T18:59:15.143Z,101032.66
2022-10-09T19:01:43.236Z,101030.59
2022-10-09T19:04:11.702Z,101032.81
2022-10-09T19:06:41.299Z,101034.88
2022-10-09T19:09:09.332Z,101036.47
2022-10-09T19:11:37.444Z,101036.94
2022-10-09T19:14:05.837Z,101035.84
2022-10-09T19:16:37.017Z,101049.66
2022-10-09T19:19:05.445Z,101036.34
2022-10-09T19:21:33.581Z,101044.75
2022-10-09T19:24:03.558Z,101036.97
2022-10-09T19:26:33.068Z,101037.72
2022-10-09T19:29:01.689Z,101032.50
2022-10-09T19:31:29.757Z,101032.81
2022-10-09T19:34:00.793Z,101036.16
2022-10-09T19:36:28.930Z,101040.91
2022-10-09T19:38:57.306Z,101047.75
2022-10-09T19:41:26.908Z,101044.09
2022-10-09T19:43:55.149Z,101050.44
2022-10-09T19:46:23.796Z,101049.31
2022-10-09T19:48:52.228Z,101052.81
2022-10-09T19:51:22.221Z,101061.41
2022-10-09T19:53:52.120Z,101065.66
2022-10-09T19:56:22.337Z,101061.53
2022-10-09T19:58:52.385Z,101062.78
2022-10-09T20:01:22.561Z,101060.28
2022-10-09T20:03:55.558Z,101062.81
2022-10-09T20:06:23.636Z,101060.75
2022-10-09T20:08:51.997Z,101062.00
2022-10-09T20:11:21.403Z,101066.13
2022-10-09T20:13:55.708Z,101059.91
2022-10-09T20:16:25.976Z,101057.50
2022-10-09T20:18:55.964Z,101062.72
2022-10-09T20:21:24.112Z,101066.84
2022-10-09T20:23:52.215Z,101063.56
2022-10-09T20:26:22.664Z,101065.66
2022-10-09T20:28:53.947Z,101062.97
2022-10-09T20:31:24.265Z,101066.16
2022-10-09T20:33:53.615Z,101068.69
2022-10-09T20:36:25.357Z,101063.13
2022-10-09T20:38:56.565Z,101063.91
2022-10-09T20:41:24.734Z,101059.72
2022-10-09T20:43:55.687Z,101059.69
2022-10-09T20:46:25.353Z,101063.44
2022-10-09T20:48:53.931Z,101060.69
2022-10-09T20:51:23.115Z,101072.88
2022-10-09T20:53:55.847Z,101075.56
2022-10-09T20:56:26.317Z,101070.66
2022-10-09T20:58:56.044Z,101072.53
2022-10-09T21:01:24.789Z,101071.59
2022-10-09T21:03:53.490Z,101072.22
2022-10-09T21:06:23.217Z,101072.69
2022-10-09T21:08:51.646Z,101071.22
2022-10-09T21:11:20.315Z,101067.09
2022-10-09T21:13:48.882Z,101067.22
2022-10-09T21:16:21.225Z,101074.22
2022-10-09T21:18:55.045Z,101080.56
2022-10-09T21:21:23.232Z,101083.72
2022-10-09T21:23:52.254Z,101085.66
2022-10-09T21:26:21.876Z,101081.22
2022-10-09T21:28:52.447Z,101081.06
2022-10-09T21:31:28.488Z,101086.97
2022-10-09T21:33:57.411Z,101072.50
2022-10-09T21:36:33.864Z,101086.72
2022-10-09T21:39:02.292Z,101077.50
2022-10-09T21:41:30.449Z,101079.44
2022-10-09T21:43:58.598Z,101086.94
2022-10-09T21:46:28.414Z,101090.28
2022-10-09T21:48:56.753Z,101087.28
2022-10-09T21:51:25.122Z,101098.09
2022-10-09T21:53:54.747Z,101097.81
2022-10-09T21:56:23.692Z,101099.41
2022-10-09T21:58:52.286Z,101104.50
2022-10-09T22:01:20.479Z,101104.84
2022-10-09T22:03:49.975Z,101111.53
2022-10-09T22:06:19.496Z,101119.97
2022-10-09T22:08:48.033Z,101117.59
2022-10-09T22:11:16.924Z,101115.03
2022-10-09T22:13:45.177Z,101110.91
2022-10-09T22:16:15.179Z,101119.97
2022-10-09T22:18:43.578Z,101113.78
2022-10-09T22:21:15.132Z,101115.06
2022-10-09T22:23:43.609Z,101124.91
2022-10-09T22:26:14.334Z,101124.56
2022-10-09T22:28:42.869Z,101121.69
2022-10-09T22:31:15.427Z,101128.97
2022-10-09T22:33:43.576Z,101131.53
2022-10-09T22:36:15.644Z,101143.38
2022-10-09T22:38:44.912Z,101136.09
2022-10-09T22:41:15.346Z,101141.94
2022-10-09T22:43:45.812Z,101139.88
2022-10-09T22:46:15.893Z,101148.28
2022-10-09T22:48:44.740Z,101148.91
2022-10-09T22:51:16.345Z,101166.19
2022-10-09T22:53:45.486Z,101157.94
2022-10-09T22:56:17.660Z,101157.94
2022-10-09T22:58:46.737Z,101152.50
2022-10-09T23:01:18.287Z,101163.13
2022-10-09T23:03:46.605Z,101168.66
2022-10-09T23:06:18.226Z,101181.19
2022-10-09T23:08:48.614Z,101182.88
2022-10-09T23:11:18.308Z,101187.66
2022-10-09T23:13:47.330Z,101192.84
2022-10-09T23:16:16.317Z,101191.44
2022-10-09T23:18:45.280Z,101193.00
2022-10-09T23:21:17.628Z,101198.84
2022-10-09T23:23:46.340Z,101205.47
2022-10-09T23:26:16.598Z,101194.31
2022-10-09T23:28:45.594Z,101200.75
2022-10-09T23:31:15.146Z,101206.75
2022-10-09T23:33:45.024Z,101200.88
2022-10-09T23:36:14.939Z,101199.78
2022-10-09T23:38:45.138Z,101211.66
2022-10-09T23:41:15.916Z,101218.44
2022-10-09T23:43:45.341Z,101214.34
2022-10-09T23:46:15.003Z,101215.88
2022-10-09T23:48:43.998Z,101216.78
2022-10-09T23:51:12.991Z,101220.38
2022-10-09T23:53:42.346Z,101219.41
2022-10-09T23:56:17.649Z,101219.81
2022-10-09T23:58:45.929Z,101225.22
